sensor_id;sensor_type;location;lat;lon;timestamp;pressure;altitude;pressure_sealevel;temperature;humidity
69060;BME280;56135;37.534;-122.308;2023-04-06T00:01:51;102093.03;;;12.77;100.00
69060;BME280;56135;37.534;-122.308;2023-04-06T00:04:17;102094.78;;;12.78;100.00
69060;BME280;56135;37.534;-122.308;2023-04-06T00:06:43;102082.41;;;12.76;100.00
69060;BME280;56135;37.534;-122.308;2023-04-06T00:09:08;102084.19;;;12.67;100.00
69060;BME280;56135;37.534;-122.308;2023-04-06T00:11:34;102092.13;;;12.66;100.00
69060;BME280;56135;37.534;-122.308;2023-04-06T00:14:00;102086.84;;;12.55;100.00
69060;BME280;56135;37.534;-122.308;2023-04-06T00:16:26;102085.94;;;12.44;100.00
69060;BME280;56135;37.534;-122.308;2023-04-06T00:18:52;102088.59;;;12.48;100.00
69060;BME280;56135;37.534;-122.308;2023-04-06T00:21:18;102093.00;;;12.63;100.00
69060;BME280;56135;37.534;-122.308;2023-04-06T00:23:43;102081.53;;;12.63;100.00
69060;BME280;56135;37.534;-122.308;2023-04-06T00:26:09;102079.78;;;12.59;100.00
69060;BME280;56135;37.534;-122.308;2023-04-06T00:28:38;102076.22;;;12.64;100.00
69060;BME280;56135;37.534;-122.308;2023-04-06T00:31:04;102084.19;;;12.67;100.00
69060;BME280;56135;37.534;-122.308;2023-04-06T00:33:30;102078.00;;;12.73;100.00
69060;BME280;56135;37.534;-122.308;2023-04-06T00:35:56;102077.97;;;12.81;100.00
69060;BME280;56135;37.534;-122.308;2023-04-06T00:38:22;102077.09;;;12.80;100.00
69060;BME280;56135;37.534;-122.308;2023-04-06T00:40:47;102061.19;;;12.85;100.00
69060;BME280;56135;37.534;-122.308;2023-04-06T00:43:13;102062.06;;;12.89;100.00
69060;BME280;56135;37.534;-122.308;2023-04-06T00:45:39;102062.94;;;12.98;100.00
69060;BME280;56135;37.534;-122.308;2023-04-06T00:48:06;102062.06;;;13.02;100.00
69060;BME280;56135;37.534;-122.308;2023-04-06T00:50:32;102063.81;;;13.07;100.00
69060;BME280;56135;37.534;-122.308;2023-04-06T00:52:58;102062.91;;;13.11;100.00
69060;BME280;56135;37.534;-122.308;2023-04-06T00:55:25;102062.94;;;13.08;100.00
69060;BME280;56135;37.534;-122.308;2023-04-06T00:57:51;102056.75;;;13.10;100.00
69060;BME280;56135;37.534;-122.308;2023-04-06T01:00:17;102065.59;;;12.98;100.00
69060;BME280;56135;37.534;-122.308;2023-04-06T01:02:43;102067.38;;;13.01;100.00
69060;BME280;56135;37.534;-122.308;2023-04-06T01:05:10;102062.06;;;12.90;100.00
69060;BME280;56135;37.534;-122.308;2023-04-06T01:07:36;102062.97;;;12.89;100.00
69060;BME280;56135;37.534;-122.308;2023-04-06T01:10:03;102062.94;;;12.78;100.00
69060;BME280;56135;37.534;-122.308;2023-04-06T01:12:29;102059.44;;;12.78;100.00
69060;BME280;56135;37.534;-122.308;2023-04-06T01:14:55;102066.50;;;12.82;100.00
69060;BME280;56135;37.534;-122.308;2023-04-06T01:17:20;102067.41;;;12.75;100.00
69060;BME280;56135;37.534;-122.308;2023-04-06T01:19:46;102078.88;;;12.60;100.00
69060;BME280;56135;37.534;-122.308;2023-04-06T01:22:15;102063.88;;;12.49;100.00
69060;BME280;56135;37.534;-122.308;2023-04-06T01:24:42;102064.75;;;12.38;100.00
69060;BME280;56135;37.534;-122.308;2023-04-06T01:27:07;102069.13;;;12.26;100.00
69060;BME280;56135;37.534;-122.308;2023-04-06T01:29:33;102074.41;;;12.14;100.00
69060;BME280;56135;37.534;-122.308;2023-04-06T01:31:59;102074.41;;;12.14;100.00
69060;BME280;56135;37.534;-122.308;2023-04-06T01:34:25;102069.09;;;12.08;100.00
69060;BME280;56135;37.534;-122.308;2023-04-06T01:36:51;102067.34;;;12.08;100.00
69060;BME280;56135;37.534;-122.308;2023-04-06T01:39:17;102059.34;;;11.96;100.00
69060;BME280;56135;37.534;-122.308;2023-04-06T01:41:43;102054.97;;;11.99;100.00
69060;BME280;56135;37.534;-122.308;2023-04-06T01:44:09;102055.84;;;11.97;100.00
69060;BME280;56135;37.534;-122.308;2023-04-06T01:46:35;102062.81;;;11.85;100.00
69060;BME280;56135;37.534;-122.308;2023-04-06T01:49:01;102055.75;;;11.80;100.00
69060;BME280;56135;37.534;-122.308;2023-04-06T01:51:27;102051.31;;;11.63;100.00
69060;BME280;56135;37.534;-122.308;2023-04-06T01:53:53;102043.31;;;11.54;100.00
69060;BME280;56135;37.534;-122.308;2023-04-06T01:56:19;102046.75;;;11.38;100.00
69060;BME280;56135;37.534;-122.308;2023-04-06T01:58:45;102054.75;;;11.42;100.00
69060;BME280;56135;37.534;-122.308;2023-04-06T02:01:11;102058.25;;;11.41;100.00
69060;BME280;56135;37.534;-122.308;2023-04-06T02:03:36;102057.34;;;11.34;100.00
69060;BME280;56135;37.534;-122.308;2023-04-06T02:06:02;102050.28;;;11.30;100.00
69060;BME280;56135;37.534;-122.308;2023-04-06T02:08:29;102051.09;;;11.15;100.00
69060;BME280;56135;37.534;-122.308;2023-04-06T02:10:54;102058.97;;;11.08;100.00
69060;BME280;56135;37.534;-122.308;2023-04-06T02:13:20;102056.28;;;11.03;100.00
69060;BME280;56135;37.534;-122.308;2023-04-06T02:15:46;102058.84;;;10.92;100.00
69060;BME280;56135;37.534;-122.308;2023-04-06T02:18:12;102062.34;;;10.85;100.00
69060;BME280;56135;37.534;-122.308;2023-04-06T02:20:37;102062.34;;;10.85;100.00
69060;BME280;56135;37.534;-122.308;2023-04-06T02:23:03;102063.19;;;10.81;100.00
69060;BME280;56135;37.534;-122.308;2023-04-06T02:25:29;102062.16;;;10.65;100.00
69060;BME280;56135;37.534;-122.308;2023-04-06T02:27:55;102069.13;;;10.52;100.00
69060;BME280;56135;37.534;-122.308;2023-04-06T02:30:21;102059.41;;;10.49;100.00
69060;BME280;56135;37.534;-122.308;2023-04-06T02:32:46;102061.06;;;10.37;100.00
69060;BME280;56135;37.534;-122.308;2023-04-06T02:35:12;102061.88;;;10.31;100.00
69060;BME280;56135;37.534;-122.308;2023-04-06T02:37:38;102058.28;;;10.23;100.00
69060;BME280;56135;37.534;-122.308;2023-04-06T02:40:04;102062.59;;;10.16;100.00
69060;BME280;56135;37.534;-122.308;2023-04-06T02:42:31;102058.09;;;10.04;100.00
69060;BME280;56135;37.534;-122.308;2023-04-06T02:44:57;102061.50;;;9.95;100.00
69060;BME280;56135;37.534;-122.308;2023-04-06T02:47:23;102066.81;;;9.98;100.00
69060;BME280;56135;37.534;-122.308;2023-04-06T02:49:51;102071.09;;;9.85;100.00
69060;BME280;56135;37.534;-122.308;2023-04-06T02:52:20;102078.09;;;9.87;100.00
69060;BME280;56135;37.534;-122.308;2023-04-06T02:54:45;102066.69;;;9.86;100.00
69060;BME280;56135;37.534;-122.308;2023-04-06T02:57:13;102072.72;;;9.76;100.00
69060;BME280;56135;37.534;-122.308;2023-04-06T02:59:39;102069.13;;;9.69;100.00
69060;BME280;56135;37.534;-122.308;2023-04-06T03:02:11;102065.53;;;9.65;100.00
69060;BME280;56135;37.534;-122.308;2023-04-06T03:04:39;102071.53;;;9.52;100.00
69060;BME280;56135;37.534;-122.308;2023-04-06T03:07:05;102083.75;;;9.44;100.00
69060;BME280;56135;37.534;-122.308;2023-04-06T03:09:31;102077.53;;;9.39;100.00
69060;BME280;56135;37.534;-122.308;2023-04-06T03:11:57;102073.09;;;9.36;100.00
69060;BME280;56135;37.534;-122.308;2023-04-06T03:14:27;102069.41;;;9.23;100.00
69060;BME280;56135;37.534;-122.308;2023-04-06T03:16:53;102071.09;;;9.18;100.00
69060;BME280;56135;37.534;-122.308;2023-04-06T03:19:19;102071.97;;;9.18;100.00
69060;BME280;56135;37.534;-122.308;2023-04-06T03:21:48;102078.16;;;9.19;100.00
69060;BME280;56135;37.534;-122.308;2023-04-06T03:24:22;102077.25;;;9.18;100.00
69060;BME280;56135;37.534;-122.308;2023-04-06T03:26:51;102072.78;;;9.13;100.00
69060;BME280;56135;37.534;-122.308;2023-04-06T03:29:20;102077.00;;;9.03;100.00
69060;BME280;56135;37.534;-122.308;2023-04-06T03:31:46;102080.41;;;8.93;100.00
69060;BME280;56135;37.534;-122.308;2023-04-06T03:34:12;102081.13;;;8.84;100.00
69060;BME280;56135;37.534;-122.308;2023-04-06T03:36:37;102082.91;;;8.85;100.00
69060;BME280;56135;37.534;-122.308;2023-04-06T03:39:03;102084.72;;;8.88;100.00
69060;BME280;56135;37.534;-122.308;2023-04-06T03:41:29;102087.41;;;8.92;100.00
69060;BME280;56135;37.534;-122.308;2023-04-06T03:44:05;102081.22;;;8.89;100.00
69060;BME280;56135;37.534;-122.308;2023-04-06T03:46:31;102092.44;;;8.77;100.00
69060;BME280;56135;37.534;-122.308;2023-04-06T03:48:57;102093.03;;;8.60;100.00
69060;BME280;56135;37.534;-122.308;2023-04-06T03:51:23;102083.16;;;8.48;100.00
69060;BME280;56135;37.534;-122.308;2023-04-06T03:53:49;102097.91;;;8.39;100.00
69060;BME280;56135;37.534;-122.308;2023-04-06T03:56:17;102097.88;;;8.37;100.00
69060;BME280;56135;37.534;-122.308;2023-04-06T03:58:43;102095.91;;;8.25;100.00
69060;BME280;56135;37.534;-122.308;2023-04-06T04:01:10;102098.47;;;8.22;100.00
69060;BME280;56135;37.534;-122.308;2023-04-06T04:03:36;102099.34;;;8.21;100.00
69060;BME280;56135;37.534;-122.308;2023-04-06T04:06:04;102101.00;;;8.16;100.00
69060;BME280;56135;37.534;-122.308;2023-04-06T04:08:31;102102.69;;;8.12;100.00
69060;BME280;56135;37.534;-122.308;2023-04-06T04:10:56;102107.00;;;8.10;100.00
69060;BME280;56135;37.534;-122.308;2023-04-06T04:13:25;102106.88;;;8.02;100.00
69060;BME280;56135;37.534;-122.308;2023-04-06T04:15:51;102105.19;;;8.06;100.00
69060;BME280;56135;37.534;-122.308;2023-04-06T04:18:20;102105.97;;;8.00;100.00
69060;BME280;56135;37.534;-122.308;2023-04-06T04:20:46;102102.44;;;7.98;100.00
69060;BME280;56135;37.534;-122.308;2023-04-06T04:23:14;102111.16;;;7.97;100.00
69060;BME280;56135;37.534;-122.308;2023-04-06T04:25:40;102109.34;;;7.93;100.00
69060;BME280;56135;37.534;-122.308;2023-04-06T04:28:06;102110.19;;;7.92;100.00
69060;BME280;56135;37.534;-122.308;2023-04-06T04:30:32;102112.69;;;7.86;100.00
69060;BME280;56135;37.534;-122.308;2023-04-06T04:32:57;102110.03;;;7.84;100.00
69060;BME280;56135;37.534;-122.308;2023-04-06T04:35:23;102111.88;;;7.89;100.00
69060;BME280;56135;37.534;-122.308;2023-04-06T04:37:49;102106.59;;;7.89;100.00
69060;BME280;56135;37.534;-122.308;2023-04-06T04:40:15;102110.19;;;7.92;100.00
69060;BME280;56135;37.534;-122.308;2023-04-06T04:42:41;102108.34;;;7.87;100.00
69060;BME280;56135;37.534;-122.308;2023-04-06T04:45:10;102112.63;;;7.83;100.00
69060;BME280;56135;37.534;-122.308;2023-04-06T04:47:39;102112.59;;;7.80;100.00
69060;BME280;56135;37.534;-122.308;2023-04-06T04:50:05;102110.59;;;7.70;100.00
69060;BME280;56135;37.534;-122.308;2023-04-06T04:52:31;102111.47;;;7.68;100.00
69060;BME280;56135;37.534;-122.308;2023-04-06T04:54:57;102112.31;;;7.67;100.00
69060;BME280;56135;37.534;-122.308;2023-04-06T04:57:23;102113.91;;;7.61;100.00
69060;BME280;56135;37.534;-122.308;2023-04-06T04:59:51;102113.03;;;7.60;100.00
69060;BME280;56135;37.534;-122.308;2023-04-06T05:02:20;102121.75;;;7.58;100.00
69060;BME280;56135;37.534;-122.308;2023-04-06T05:04:45;102135.69;;;7.54;100.00
69060;BME280;56135;37.534;-122.308;2023-04-06T05:07:11;102132.00;;;7.45;100.00
69060;BME280;56135;37.534;-122.308;2023-04-06T05:09:37;102135.50;;;7.44;100.00
69060;BME280;56135;37.534;-122.308;2023-04-06T05:12:03;102138.91;;;7.40;100.00
69060;BME280;56135;37.534;-122.308;2023-04-06T05:14:29;102140.38;;;7.29;100.00
69060;BME280;56135;37.534;-122.308;2023-04-06T05:16:54;102143.81;;;7.26;100.00
69060;BME280;56135;37.534;-122.308;2023-04-06T05:19:20;102140.09;;;7.16;100.00
69060;BME280;56135;37.534;-122.308;2023-04-06T05:21:46;102140.13;;;7.18;100.00
69060;BME280;56135;37.534;-122.308;2023-04-06T05:24:12;102144.47;;;7.16;100.00
69060;BME280;56135;37.534;-122.308;2023-04-06T05:26:38;102139.91;;;7.09;100.00
69060;BME280;56135;37.534;-122.308;2023-04-06T05:29:04;102143.47;;;7.11;100.00
69060;BME280;56135;37.534;-122.308;2023-04-06T05:31:30;102137.28;;;7.09;100.00
69060;BME280;56135;37.534;-122.308;2023-04-06T05:33:56;102138.97;;;7.07;100.00
69060;BME280;56135;37.534;-122.308;2023-04-06T05:36:22;102132.81;;;7.05;100.00
69060;BME280;56135;37.534;-122.308;2023-04-06T05:38:48;102135.34;;;7.01;100.00
69060;BME280;56135;37.534;-122.308;2023-04-06T05:41:15;102135.28;;;6.98;100.00
69060;BME280;56135;37.534;-122.308;2023-04-06T05:43:41;102134.44;;;6.99;100.00
69060;BME280;56135;37.534;-122.308;2023-04-06T05:46:07;102129.97;;;6.95;100.00
69060;BME280;56135;37.534;-122.308;2023-04-06T05:48:33;102118.72;;;7.01;100.00
69060;BME280;56135;37.534;-122.308;2023-04-06T05:50:58;102123.16;;;7.04;100.00
69060;BME280;56135;37.534;-122.308;2023-04-06T05:53:25;102124.00;;;7.03;100.00
69060;BME280;56135;37.534;-122.308;2023-04-06T05:55:54;102125.75;;;7.02;100.00
69060;BME280;56135;37.534;-122.308;2023-04-06T05:58:20;102131.84;;;7.01;100.00
69060;BME280;56135;37.534;-122.308;2023-04-06T06:00:46;102131.81;;;6.99;100.00
69060;BME280;56135;37.534;-122.308;2023-04-06T06:03:12;102134.31;;;6.95;100.00
69060;BME280;56135;37.534;-122.308;2023-04-06T06:05:37;102131.81;;;6.99;100.00
69060;BME280;56135;37.534;-122.308;2023-04-06T06:08:03;102127.38;;;6.97;100.00
69060;BME280;56135;37.534;-122.308;2023-04-06T06:10:29;102128.19;;;6.94;100.00
69060;BME280;56135;37.534;-122.308;2023-04-06T06:12:55;102128.19;;;6.94;100.00
69060;BME280;56135;37.534;-122.308;2023-04-06T06:15:21;102129.97;;;6.95;100.00
69060;BME280;56135;37.534;-122.308;2023-04-06T06:17:47;102136.06;;;6.94;100.00
69060;BME280;56135;37.534;-122.308;2023-04-06T06:20:13;102134.25;;;6.92;100.00
69060;BME280;56135;37.534;-122.308;2023-04-06T06:22:38;102132.56;;;6.94;100.00
69060;BME280;56135;37.534;-122.308;2023-04-06T06:25:05;102133.38;;;6.91;100.00
69060;BME280;56135;37.534;-122.308;2023-04-06T06:27:31;102141.25;;;6.91;100.00
69060;BME280;56135;37.534;-122.308;2023-04-06T06:29:57;102136.84;;;6.90;100.00
69060;BME280;56135;37.534;-122.308;2023-04-06T06:32:22;102137.72;;;6.91;100.00
69060;BME280;56135;37.534;-122.308;2023-04-06T06:34:48;102131.44;;;6.84;100.00
69060;BME280;56135;37.534;-122.308;2023-04-06T06:37:14;102137.53;;;6.83;100.00
69060;BME280;56135;37.534;-122.308;2023-04-06T06:39:40;102136.44;;;6.75;100.00
69060;BME280;56135;37.534;-122.308;2023-04-06T06:42:05;102132.88;;;6.71;100.00
69060;BME280;56135;37.534;-122.308;2023-04-06T06:44:31;102135.53;;;6.73;100.00
69060;BME280;56135;37.534;-122.308;2023-04-06T06:46:57;102134.56;;;6.69;100.00
69060;BME280;56135;37.534;-122.308;2023-04-06T06:49:23;102138.03;;;6.68;100.00
69060;BME280;56135;37.534;-122.308;2023-04-06T06:51:49;102130.06;;;6.63;100.00
69060;BME280;56135;37.534;-122.308;2023-04-06T06:54:15;102130.06;;;6.63;100.00
69060;BME280;56135;37.534;-122.308;2023-04-06T06:56:41;102129.03;;;6.58;100.00
69060;BME280;56135;37.534;-122.308;2023-04-06T06:59:06;102132.44;;;6.54;100.00
69060;BME280;56135;37.534;-122.308;2023-04-06T07:01:32;102136.69;;;6.49;100.00
69060;BME280;56135;37.534;-122.308;2023-04-06T07:03:58;102134.78;;;6.43;100.00
69060;BME280;56135;37.534;-122.308;2023-04-06T07:06:24;102138.22;;;6.41;100.00
69060;BME280;56135;37.534;-122.308;2023-04-06T07:08:50;102138.88;;;6.33;100.00
69060;BME280;56135;37.534;-122.308;2023-04-06T07:11:16;102130.09;;;6.31;100.00
69060;BME280;56135;37.534;-122.308;2023-04-06T07:13:42;102136.03;;;6.26;100.00
69060;BME280;56135;37.534;-122.308;2023-04-06T07:16:08;102128.97;;;6.23;100.00
69060;BME280;56135;37.534;-122.308;2023-04-06T07:18:34;102130.69;;;6.21;100.00
69060;BME280;56135;37.534;-122.308;2023-04-06T07:21:00;102124.41;;;6.16;100.00
69060;BME280;56135;37.534;-122.308;2023-04-06T07:23:25;102132.03;;;6.07;100.00
69060;BME280;56135;37.534;-122.308;2023-04-06T07:25:51;102125.75;;;6.01;100.00
69060;BME280;56135;37.534;-122.308;2023-04-06T07:28:19;102129.09;;;5.96;100.00
69060;BME280;56135;37.534;-122.308;2023-04-06T07:30:44;102122.50;;;6.09;100.00
69060;BME280;56135;37.534;-122.308;2023-04-06T07:33:10;102117.31;;;6.12;100.00
69060;BME280;56135;37.534;-122.308;2023-04-06T07:35:37;102120.78;;;6.11;100.00
69060;BME280;56135;37.534;-122.308;2023-04-06T07:38:03;102119.75;;;6.06;100.00
69060;BME280;56135;37.534;-122.308;2023-04-06T07:40:29;102123.16;;;6.01;100.00
69060;BME280;56135;37.534;-122.308;2023-04-06T07:42:56;102122.16;;;5.98;100.00
69060;BME280;56135;37.534;-122.308;2023-04-06T07:45:22;102122.94;;;5.95;100.00
69060;BME280;56135;37.534;-122.308;2023-04-06T07:47:48;102128.06;;;5.91;100.00
69060;BME280;56135;37.534;-122.308;2023-04-06T07:50:15;102131.47;;;5.88;100.00
69060;BME280;56135;37.534;-122.308;2023-04-06T07:52:41;102121.75;;;5.84;100.00
69060;BME280;56135;37.534;-122.308;2023-04-06T07:55:07;102126.91;;;5.81;100.00
69060;BME280;56135;37.534;-122.308;2023-04-06T07:57:33;102123.31;;;5.77;100.00
69060;BME280;56135;37.534;-122.308;2023-04-06T07:59:58;102128.31;;;5.70;100.00
69060;BME280;56135;37.534;-122.308;2023-04-06T08:02:24;102125.63;;;5.66;100.00
69060;BME280;56135;37.534;-122.308;2023-04-06T08:04:50;102119.38;;;5.63;100.00
69060;BME280;56135;37.534;-122.308;2023-04-06T08:07:16;102121.94;;;5.60;100.00
69060;BME280;56135;37.534;-122.308;2023-04-06T08:09:42;102114.91;;;5.59;100.00
69060;BME280;56135;37.534;-122.308;2023-04-06T08:12:08;102130.63;;;5.59;100.00
69060;BME280;56135;37.534;-122.308;2023-04-06T08:14:33;102128.84;;;5.58;100.00
69060;BME280;56135;37.534;-122.308;2023-04-06T08:17:00;102128.72;;;5.53;100.00
69060;BME280;56135;37.534;-122.308;2023-04-06T08:19:25;102121.50;;;5.46;100.00
69060;BME280;56135;37.534;-122.308;2023-04-06T08:21:51;102116.13;;;5.41;100.00
69060;BME280;56135;37.534;-122.308;2023-04-06T08:24:17;102117.81;;;5.39;100.00
69060;BME280;56135;37.534;-122.308;2023-04-06T08:26:43;102123.84;;;5.37;100.00
69060;BME280;56135;37.534;-122.308;2023-04-06T08:29:09;102119.34;;;5.32;100.00
69060;BME280;56135;37.534;-122.308;2023-04-06T08:31:35;102115.84;;;5.32;100.00
69060;BME280;56135;37.534;-122.308;2023-04-06T08:34:01;102128.88;;;5.30;100.00
69060;BME280;56135;37.534;-122.308;2023-04-06T08:36:27;102119.25;;;5.29;100.00
69060;BME280;56135;37.534;-122.308;2023-04-06T08:38:53;102117.47;;;5.28;100.00
69060;BME280;56135;37.534;-122.308;2023-04-06T08:41:19;102120.00;;;5.25;100.00
69060;BME280;56135;37.534;-122.308;2023-04-06T08:43:50;102117.31;;;5.24;100.00
69060;BME280;56135;37.534;-122.308;2023-04-06T08:46:18;102112.00;;;5.21;100.00
69060;BME280;56135;37.534;-122.308;2023-04-06T08:48:44;102119.03;;;5.22;100.00
69060;BME280;56135;37.534;-122.308;2023-04-06T08:51:11;102112.16;;;5.25;100.00
69060;BME280;56135;37.534;-122.308;2023-04-06T08:53:38;102105.13;;;5.24;100.00
69060;BME280;56135;37.534;-122.308;2023-04-06T08:56:04;102109.53;;;5.25;100.00
69060;BME280;56135;37.534;-122.308;2023-04-06T08:58:37;102108.59;;;5.23;100.00
69060;BME280;56135;37.534;-122.308;2023-04-06T09:01:08;102104.19;;;5.22;100.00
69060;BME280;56135;37.534;-122.308;2023-04-06T09:03:37;102103.25;;;5.20;100.00
69060;BME280;56135;37.534;-122.308;2023-04-06T09:06:04;102105.69;;;5.14;100.00
69060;BME280;56135;37.534;-122.308;2023-04-06T09:08:31;102111.78;;;5.14;100.00
69060;BME280;56135;37.534;-122.308;2023-04-06T09:10:56;102106.50;;;5.13;100.00
69060;BME280;56135;37.534;-122.308;2023-04-06T09:13:22;102110.03;;;5.13;100.00
69060;BME280;56135;37.534;-122.308;2023-04-06T09:15:57;102113.53;;;5.14;100.00
69060;BME280;56135;37.534;-122.308;2023-04-06T09:18:30;102111.72;;;5.11;100.00
69060;BME280;56135;37.534;-122.308;2023-04-06T09:20:57;102107.25;;;5.09;100.00
69060;BME280;56135;37.534;-122.308;2023-04-06T09:23:22;102110.78;;;5.09;100.00
69060;BME280;56135;37.534;-122.308;2023-04-06T09:25:49;102115.94;;;5.08;100.00
69060;BME280;56135;37.534;-122.308;2023-04-06T09:28:14;102118.53;;;5.06;100.00
69060;BME280;56135;37.534;-122.308;2023-04-06T09:30:47;102121.16;;;5.06;100.00
69060;BME280;56135;37.534;-122.308;2023-04-06T09:33:13;102115.94;;;5.08;100.00
69060;BME280;56135;37.534;-122.308;2023-04-06T09:35:49;102113.31;;;5.08;100.00
69060;BME280;56135;37.534;-122.308;2023-04-06T09:38:16;102110.66;;;5.06;100.00
69060;BME280;56135;37.534;-122.308;2023-04-06T09:40:51;102103.63;;;5.05;100.00
69060;BME280;56135;37.534;-122.308;2023-04-06T09:43:24;102108.00;;;5.05;100.00
69060;BME280;56135;37.534;-122.308;2023-04-06T09:45:50;102109.78;;;5.06;100.00
69060;BME280;56135;37.534;-122.308;2023-04-06T09:48:16;102115.94;;;5.08;100.00
69060;BME280;56135;37.534;-122.308;2023-04-06T09:50:42;102114.38;;;5.13;100.00
69060;BME280;56135;37.534;-122.308;2023-04-06T09:53:08;102101.22;;;5.11;100.00
69060;BME280;56135;37.534;-122.308;2023-04-06T09:55:36;102111.78;;;5.14;100.00
69060;BME280;56135;37.534;-122.308;2023-04-06T09:58:06;102105.75;;;5.17;100.00
69060;BME280;56135;37.534;-122.308;2023-04-06T10:00:32;102110.22;;;5.20;100.00
69060;BME280;56135;37.534;-122.308;2023-04-06T10:06:07;102096.44;;;5.25;100.00
69060;BME280;56135;37.534;-122.308;2023-04-06T10:08:32;102098.16;;;5.25;100.00
69060;BME280;56135;37.534;-122.308;2023-04-06T10:10:58;102102.47;;;5.23;100.00
69060;BME280;56135;37.534;-122.308;2023-04-06T10:13:25;102095.41;;;5.20;100.00
69060;BME280;56135;37.534;-122.308;2023-04-06T10:15:52;102095.47;;;5.23;100.00
69060;BME280;56135;37.534;-122.308;2023-04-06T10:18:17;102091.00;;;5.19;100.00
69060;BME280;56135;37.534;-122.308;2023-04-06T10:20:49;102087.50;;;5.18;100.00
69060;BME280;56135;37.534;-122.308;2023-04-06T10:25:55;102071.69;;;5.17;100.00
69060;BME280;56135;37.534;-122.308;2023-04-06T10:28:21;102065.53;;;5.15;100.00
69060;BME280;56135;37.534;-122.308;2023-04-06T10:30:47;102055.09;;;5.16;100.00
69060;BME280;56135;37.534;-122.308;2023-04-06T10:35:39;102042.06;;;5.18;100.00
69060;BME280;56135;37.534;-122.308;2023-04-06T10:38:05;102037.56;;;5.14;100.00
69060;BME280;56135;37.534;-122.308;2023-04-06T10:40:31;102028.94;;;5.18;100.00
69060;BME280;56135;37.534;-122.308;2023-04-06T10:43:07;102022.69;;;5.13;100.00
69060;BME280;56135;37.534;-122.308;2023-04-06T10:45:33;102013.09;;;5.13;100.00
69060;BME280;56135;37.534;-122.308;2023-04-06T10:47:59;102007.06;;;5.16;100.00
69060;BME280;56135;37.534;-122.308;2023-04-06T10:50:25;101999.34;;;5.21;100.00
69060;BME280;56135;37.534;-122.308;2023-04-06T10:53:01;101999.34;;;5.21;100.00
69060;BME280;56135;37.534;-122.308;2023-04-06T10:55:27;102002.03;;;5.24;100.00
69060;BME280;56135;37.534;-122.308;2023-04-06T10:57:54;102002.94;;;5.24;100.00
69060;BME280;56135;37.534;-122.308;2023-04-06T11:00:20;101997.75;;;5.26;100.00
69060;BME280;56135;37.534;-122.308;2023-04-06T11:02:46;102001.34;;;5.29;100.00
69060;BME280;56135;37.534;-122.308;2023-04-06T11:05:14;101994.41;;;5.31;100.00
69060;BME280;56135;37.534;-122.308;2023-04-06T11:07:40;102004.88;;;5.31;100.00
69060;BME280;56135;37.534;-122.308;2023-04-06T11:10:06;102005.00;;;5.34;100.00
69060;BME280;56135;37.534;-122.308;2023-04-06T11:12:32;102000.44;;;5.93;100.00
69060;BME280;56135;37.534;-122.308;2023-04-06T11:15:00;101991.25;;;5.43;100.00
69060;BME280;56135;37.534;-122.308;2023-04-06T11:17:31;101986.66;;;5.34;100.00
69060;BME280;56135;37.534;-122.308;2023-04-06T11:19:57;101979.63;;;5.33;100.00
69060;BME280;56135;37.534;-122.308;2023-04-06T11:22:24;101972.69;;;5.35;100.00
69060;BME280;56135;37.534;-122.308;2023-04-06T11:24:50;101968.47;;;5.41;100.00
69060;BME280;56135;37.534;-122.308;2023-04-06T11:27:16;101972.00;;;5.41;100.00
69060;BME280;56135;37.534;-122.308;2023-04-06T11:29:43;101979.88;;;5.43;100.00
69060;BME280;56135;37.534;-122.308;2023-04-06T11:32:11;101970.28;;;5.43;100.00
69060;BME280;56135;37.534;-122.308;2023-04-06T11:34:38;101973.69;;;5.41;100.00
69060;BME280;56135;37.534;-122.308;2023-04-06T11:37:08;101971.91;;;5.40;100.00
69060;BME280;56135;37.534;-122.308;2023-04-06T11:39:46;101971.09;;;5.41;100.00
69060;BME280;56135;37.534;-122.308;2023-04-06T11:42:13;101964.97;;;5.40;100.00
69060;BME280;56135;37.534;-122.308;2023-04-06T11:44:44;101969.28;;;5.40;100.00
69060;BME280;56135;37.534;-122.308;2023-04-06T11:47:14;101970.16;;;5.39;100.00
69060;BME280;56135;37.534;-122.308;2023-04-06T11:49:41;101969.19;;;5.35;100.00
69060;BME280;56135;37.534;-122.308;2023-04-06T11:52:23;101966.53;;;5.33;100.00
69060;BME280;56135;37.534;-122.308;2023-04-06T11:54:49;101967.31;;;5.31;100.00
69060;BME280;56135;37.534;-122.308;2023-04-06T11:57:16;101969.78;;;5.26;100.00
69060;BME280;56135;37.534;-122.308;2023-04-06T11:59:42;101970.81;;;5.31;100.00
69060;BME280;56135;37.534;-122.308;2023-04-06T12:02:07;101963.91;;;5.33;100.00
69060;BME280;56135;37.534;-122.308;2023-04-06T12:04:34;101970.81;;;5.31;100.00
69060;BME280;56135;37.534;-122.308;2023-04-06T12:07:00;101973.44;;;5.31;100.00
69060;BME280;56135;37.534;-122.308;2023-04-06T12:09:26;101970.78;;;5.30;100.00
69060;BME280;56135;37.534;-122.308;2023-04-06T12:11:51;101975.03;;;5.26;100.00
69060;BME280;56135;37.534;-122.308;2023-04-06T12:14:17;101973.28;;;5.25;100.00
69060;BME280;56135;37.534;-122.308;2023-04-06T12:16:43;101975.72;;;5.19;100.00
69060;BME280;56135;37.534;-122.308;2023-04-06T12:19:09;101978.25;;;5.16;100.00
69060;BME280;56135;37.534;-122.308;2023-04-06T12:21:35;101979.84;;;5.11;100.00
69060;BME280;56135;37.534;-122.308;2023-04-06T12:24:04;101976.28;;;5.09;100.00